sensor_id;sensor_type;location;lat;lon;timestamp;temperature;humidity
21353;DHT22;10834;52.268;6.770;2023-07-30T00:02:05;15.50;99.90
21353;DHT22;10834;52.268;6.770;2023-07-30T00:04:51;15.50;99.90
21353;DHT22;10834;52.268;6.770;2023-07-30T00:07:37;15.50;99.90
21353;DHT22;10834;52.268;6.770;2023-07-30T00:10:23;15.50;99.90
21353;DHT22;10834;52.268;6.770;2023-07-30T00:13:09;15.50;99.90
21353;DHT22;10834;52.268;6.770;2023-07-30T00:15:55;15.40;99.90
21353;DHT22;10834;52.268;6.770;2023-07-30T00:18:41;15.40;99.90
21353;DHT22;10834;52.268;6.770;2023-07-30T00:21:27;15.40;99.90
21353;DHT22;10834;52.268;6.770;2023-07-30T00:24:13;15.40;99.90
21353;DHT22;10834;52.268;6.770;2023-07-30T00:26:59;15.40;99.90
21353;DHT22;10834;52.268;6.770;2023-07-30T00:29:45;15.40;99.90
21353;DHT22;10834;52.268;6.770;2023-07-30T00:32:32;15.40;99.90
21353;DHT22;10834;52.268;6.770;2023-07-30T00:35:18;15.40;99.90
21353;DHT22;10834;52.268;6.770;2023-07-30T00:38:04;15.40;99.90
21353;DHT22;10834;52.268;6.770;2023-07-30T00:40:50;15.40;99.90
21353;DHT22;10834;52.268;6.770;2023-07-30T00:43:36;15.40;99.90
21353;DHT22;10834;52.268;6.770;2023-07-30T00:46:22;15.30;99.90
21353;DHT22;10834;52.268;6.770;2023-07-30T00:49:09;15.30;99.90
21353;DHT22;10834;52.268;6.770;2023-07-30T00:51:55;15.30;99.90
21353;DHT22;10834;52.268;6.770;2023-07-30T00:54:42;15.30;99.90
21353;DHT22;10834;52.268;6.770;2023-07-30T00:57:28;15.30;99.90
21353;DHT22;10834;52.268;6.770;2023-07-30T01:00:14;15.30;99.90
21353;DHT22;10834;52.268;6.770;2023-07-30T01:03:00;15.30;99.90
21353;DHT22;10834;52.268;6.770;2023-07-30T01:05:47;15.30;99.90
21353;DHT22;10834;52.268;6.770;2023-07-30T01:08:33;15.30;99.90
21353;DHT22;10834;52.268;6.770;2023-07-30T01:11:20;15.30;99.90
21353;DHT22;10834;52.268;6.770;2023-07-30T01:14:07;15.30;99.90
21353;DHT22;10834;52.268;6.770;2023-07-30T01:16:54;15.30;99.90
21353;DHT22;10834;52.268;6.770;2023-07-30T01:19:40;15.30;99.90
21353;DHT22;10834;52.268;6.770;2023-07-30T01:22:26;15.20;99.90
21353;DHT22;10834;52.268;6.770;2023-07-30T01:25:12;15.20;99.90
21353;DHT22;10834;52.268;6.770;2023-07-30T01:28:01;15.20;99.90
21353;DHT22;10834;52.268;6.770;2023-07-30T01:30:48;15.20;99.90
21353;DHT22;10834;52.268;6.770;2023-07-30T01:33:34;15.20;99.90
21353;DHT22;10834;52.268;6.770;2023-07-30T01:36:21;15.10;99.90
21353;DHT22;10834;52.268;6.770;2023-07-30T01:39:08;15.10;99.90
21353;DHT22;10834;52.268;6.770;2023-07-30T01:41:55;15.10;99.90
21353;DHT22;10834;52.268;6.770;2023-07-30T01:44:41;15.10;99.90
21353;DHT22;10834;52.268;6.770;2023-07-30T01:47:27;15.10;99.90
21353;DHT22;10834;52.268;6.770;2023-07-30T01:50:13;15.00;99.90
21353;DHT22;10834;52.268;6.770;2023-07-30T01:52:59;15.10;99.90
21353;DHT22;10834;52.268;6.770;2023-07-30T01:55:45;15.00;99.90
21353;DHT22;10834;52.268;6.770;2023-07-30T01:58:32;15.00;99.90
21353;DHT22;10834;52.268;6.770;2023-07-30T02:01:18;15.00;99.90
21353;DHT22;10834;52.268;6.770;2023-07-30T02:04:04;15.00;99.90
21353;DHT22;10834;52.268;6.770;2023-07-30T02:06:50;15.00;99.90
21353;DHT22;10834;52.268;6.770;2023-07-30T02:09:36;15.00;99.90
21353;DHT22;10834;52.268;6.770;2023-07-30T02:12:22;15.00;99.90
21353;DHT22;10834;52.268;6.770;2023-07-30T02:15:08;15.00;99.90
21353;DHT22;10834;52.268;6.770;2023-07-30T02:17:54;15.00;99.90
21353;DHT22;10834;52.268;6.770;2023-07-30T02:20:40;15.00;99.90
21353;DHT22;10834;52.268;6.770;2023-07-30T02:23:27;15.00;99.90
21353;DHT22;10834;52.268;6.770;2023-07-30T02:26:13;15.00;99.90
21353;DHT22;10834;52.268;6.770;2023-07-30T02:28:59;15.00;99.90
21353;DHT22;10834;52.268;6.770;2023-07-30T02:31:46;15.00;99.90
21353;DHT22;10834;52.268;6.770;2023-07-30T02:34:32;15.00;99.90
21353;DHT22;10834;52.268;6.770;2023-07-30T02:37:18;15.00;99.90
21353;DHT22;10834;52.268;6.770;2023-07-30T02:40:04;15.00;99.90
21353;DHT22;10834;52.268;6.770;2023-07-30T02:42:51;14.90;99.90
21353;DHT22;10834;52.268;6.770;2023-07-30T02:45:38;15.00;99.90
21353;DHT22;10834;52.268;6.770;2023-07-30T02:48:24;15.00;99.90
21353;DHT22;10834;52.268;6.770;2023-07-30T02:51:10;14.90;99.90
21353;DHT22;10834;52.268;6.770;2023-07-30T02:54:04;14.90;99.90
21353;DHT22;10834;52.268;6.770;2023-07-30T02:56:50;14.90;99.90
21353;DHT22;10834;52.268;6.770;2023-07-30T02:59:36;14.90;99.90
21353;DHT22;10834;52.268;6.770;2023-07-30T03:02:23;14.90;99.90
21353;DHT22;10834;52.268;6.770;2023-07-30T03:05:09;14.90;99.90
21353;DHT22;10834;52.268;6.770;2023-07-30T03:07:55;14.90;99.90
21353;DHT22;10834;52.268;6.770;2023-07-30T03:10:41;14.90;99.90
21353;DHT22;10834;52.268;6.770;2023-07-30T03:13:27;14.90;99.90
21353;DHT22;10834;52.268;6.770;2023-07-30T03:16:13;14.80;99.90
21353;DHT22;10834;52.268;6.770;2023-07-30T03:18:59;14.80;99.90
21353;DHT22;10834;52.268;6.770;2023-07-30T03:21:45;14.90;99.90
21353;DHT22;10834;52.268;6.770;2023-07-30T03:24:31;14.80;99.90
21353;DHT22;10834;52.268;6.770;2023-07-30T03:27:17;14.80;99.90
21353;DHT22;10834;52.268;6.770;2023-07-30T03:30:03;14.80;99.90
21353;DHT22;10834;52.268;6.770;2023-07-30T03:32:50;14.80;99.90
21353;DHT22;10834;52.268;6.770;2023-07-30T03:35:36;14.80;99.90
21353;DHT22;10834;52.268;6.770;2023-07-30T03:38:22;14.80;99.90
21353;DHT22;10834;52.268;6.770;2023-07-30T03:41:09;14.80;99.90
21353;DHT22;10834;52.268;6.770;2023-07-30T03:43:56;14.90;99.90
21353;DHT22;10834;52.268;6.770;2023-07-30T03:46:43;14.80;99.90
21353;DHT22;10834;52.268;6.770;2023-07-30T03:49:29;14.80;99.90
21353;DHT22;10834;52.268;6.770;2023-07-30T03:52:15;14.80;99.90
21353;DHT22;10834;52.268;6.770;2023-07-30T03:55:03;14.80;99.90
21353;DHT22;10834;52.268;6.770;2023-07-30T03:57:50;14.80;99.90
21353;DHT22;10834;52.268;6.770;2023-07-30T04:00:36;14.80;99.90
21353;DHT22;10834;52.268;6.770;2023-07-30T04:03:22;14.80;99.90
21353;DHT22;10834;52.268;6.770;2023-07-30T04:06:08;14.80;99.90
21353;DHT22;10834;52.268;6.770;2023-07-30T04:08:54;14.80;99.90
21353;DHT22;10834;52.268;6.770;2023-07-30T04:11:40;14.80;99.90
21353;DHT22;10834;52.268;6.770;2023-07-30T04:14:27;14.80;99.90
21353;DHT22;10834;52.268;6.770;2023-07-30T04:17:13;14.70;99.90
21353;DHT22;10834;52.268;6.770;2023-07-30T04:19:59;14.80;99.90
21353;DHT22;10834;52.268;6.770;2023-07-30T04:22:45;14.80;99.90
21353;DHT22;10834;52.268;6.770;2023-07-30T04:25:31;14.80;99.90
21353;DHT22;10834;52.268;6.770;2023-07-30T04:28:17;14.70;99.90
21353;DHT22;10834;52.268;6.770;2023-07-30T04:31:03;14.80;99.90
21353;DHT22;10834;52.268;6.770;2023-07-30T04:33:50;14.80;99.90
21353;DHT22;10834;52.268;6.770;2023-07-30T04:36:36;14.80;99.90
21353;DHT22;10834;52.268;6.770;2023-07-30T04:39:22;14.80;99.90
21353;DHT22;10834;52.268;6.770;2023-07-30T04:42:08;14.80;99.90
21353;DHT22;10834;52.268;6.770;2023-07-30T04:44:54;14.80;99.90
21353;DHT22;10834;52.268;6.770;2023-07-30T04:47:40;14.90;99.90
21353;DHT22;10834;52.268;6.770;2023-07-30T04:50:26;14.90;99.90
21353;DHT22;10834;52.268;6.770;2023-07-30T04:53:12;15.00;99.90
21353;DHT22;10834;52.268;6.770;2023-07-30T04:55:59;15.10;99.90
21353;DHT22;10834;52.268;6.770;2023-07-30T04:58:45;15.20;99.90
21353;DHT22;10834;52.268;6.770;2023-07-30T05:01:31;15.20;99.90
21353;DHT22;10834;52.268;6.770;2023-07-30T05:04:17;15.30;99.90
21353;DHT22;10834;52.268;6.770;2023-07-30T05:07:03;15.30;99.90
21353;DHT22;10834;52.268;6.770;2023-07-30T05:09:49;15.40;99.90
21353;DHT22;10834;52.268;6.770;2023-07-30T05:12:35;15.40;99.90
21353;DHT22;10834;52.268;6.770;2023-07-30T05:15:21;15.40;99.90
21353;DHT22;10834;52.268;6.770;2023-07-30T05:18:07;15.60;99.90
21353;DHT22;10834;52.268;6.770;2023-07-30T05:20:54;15.60;99.90
21353;DHT22;10834;52.268;6.770;2023-07-30T05:23:40;15.70;99.90
21353;DHT22;10834;52.268;6.770;2023-07-30T05:26:26;15.80;99.90
21353;DHT22;10834;52.268;6.770;2023-07-30T05:29:12;15.90;99.90
21353;DHT22;10834;52.268;6.770;2023-07-30T05:31:58;16.10;99.90
21353;DHT22;10834;52.268;6.770;2023-07-30T05:34:44;16.20;99.90
21353;DHT22;10834;52.268;6.770;2023-07-30T05:37:30;16.30;99.90
21353;DHT22;10834;52.268;6.770;2023-07-30T05:40:16;16.40;99.90
21353;DHT22;10834;52.268;6.770;2023-07-30T05:43:02;16.50;99.90
21353;DHT22;10834;52.268;6.770;2023-07-30T05:45:49;16.60;99.90
21353;DHT22;10834;52.268;6.770;2023-07-30T05:48:36;16.60;99.90
21353;DHT22;10834;52.268;6.770;2023-07-30T05:51:22;16.60;99.90
21353;DHT22;10834;52.268;6.770;2023-07-30T05:54:08;16.60;99.90
21353;DHT22;10834;52.268;6.770;2023-07-30T05:56:54;16.70;99.90
21353;DHT22;10834;52.268;6.770;2023-07-30T05:59:40;16.80;99.90
21353;DHT22;10834;52.268;6.770;2023-07-30T06:02:26;16.90;99.90
21353;DHT22;10834;52.268;6.770;2023-07-30T06:05:12;17.00;99.90
21353;DHT22;10834;52.268;6.770;2023-07-30T06:07:58;17.00;99.90
21353;DHT22;10834;52.268;6.770;2023-07-30T06:10:45;17.00;99.90
21353;DHT22;10834;52.268;6.770;2023-07-30T06:13:32;17.00;99.90
21353;DHT22;10834;52.268;6.770;2023-07-30T06:16:19;17.10;99.90
21353;DHT22;10834;52.268;6.770;2023-07-30T06:19:06;17.10;99.90
21353;DHT22;10834;52.268;6.770;2023-07-30T06:21:52;17.10;99.90
21353;DHT22;10834;52.268;6.770;2023-07-30T06:24:38;17.20;99.90
21353;DHT22;10834;52.268;6.770;2023-07-30T06:27:24;17.40;99.90
21353;DHT22;10834;52.268;6.770;2023-07-30T06:30:11;17.40;99.90
21353;DHT22;10834;52.268;6.770;2023-07-30T06:32:57;17.50;99.90
21353;DHT22;10834;52.268;6.770;2023-07-30T06:35:43;17.60;99.90
21353;DHT22;10834;52.268;6.770;2023-07-30T06:38:29;17.60;99.90
21353;DHT22;10834;52.268;6.770;2023-07-30T06:41:15;17.70;99.90
21353;DHT22;10834;52.268;6.770;2023-07-30T06:44:01;17.80;99.90
21353;DHT22;10834;52.268;6.770;2023-07-30T06:46:47;17.80;99.90
21353;DHT22;10834;52.268;6.770;2023-07-30T06:49:33;17.80;99.90
21353;DHT22;10834;52.268;6.770;2023-07-30T06:52:20;17.80;99.90
21353;DHT22;10834;52.268;6.770;2023-07-30T06:55:06;17.80;99.90
21353;DHT22;10834;52.268;6.770;2023-07-30T06:57:52;17.80;99.90
21353;DHT22;10834;52.268;6.770;2023-07-30T07:00:38;17.80;99.90
21353;DHT22;10834;52.268;6.770;2023-07-30T07:03:24;17.90;99.90
21353;DHT22;10834;52.268;6.770;2023-07-30T07:06:10;18.00;99.90
21353;DHT22;10834;52.268;6.770;2023-07-30T07:08:56;18.10;99.90
21353;DHT22;10834;52.268;6.770;2023-07-30T07:11:43;18.40;99.90
21353;DHT22;10834;52.268;6.770;2023-07-30T07:14:29;18.50;99.90
21353;DHT22;10834;52.268;6.770;2023-07-30T07:17:15;19.10;99.90
21353;DHT22;10834;52.268;6.770;2023-07-30T07:20:01;19.20;99.90
21353;DHT22;10834;52.268;6.770;2023-07-30T07:22:49;19.20;99.90
21353;DHT22;10834;52.268;6.770;2023-07-30T07:25:35;19.10;99.90
21353;DHT22;10834;52.268;6.770;2023-07-30T07:28:23;19.10;99.90
21353;DHT22;10834;52.268;6.770;2023-07-30T07:31:09;19.30;99.90
21353;DHT22;10834;52.268;6.770;2023-07-30T07:33:55;19.70;99.90
21353;DHT22;10834;52.268;6.770;2023-07-30T07:36:41;19.80;99.90
21353;DHT22;10834;52.268;6.770;2023-07-30T07:39:27;19.70;99.90
21353;DHT22;10834;52.268;6.770;2023-07-30T07:42:13;19.60;99.90
21353;DHT22;10834;52.268;6.770;2023-07-30T07:44:59;19.40;99.90
21353;DHT22;10834;52.268;6.770;2023-07-30T07:47:45;19.20;99.90
21353;DHT22;10834;52.268;6.770;2023-07-30T07:50:31;19.20;99.90
21353;DHT22;10834;52.268;6.770;2023-07-30T07:53:18;19.20;99.90
21353;DHT22;10834;52.268;6.770;2023-07-30T07:56:04;19.20;99.90
21353;DHT22;10834;52.268;6.770;2023-07-30T07:58:50;19.20;99.90
21353;DHT22;10834;52.268;6.770;2023-07-30T08:01:36;19.40;99.90
21353;DHT22;10834;52.268;6.770;2023-07-30T08:04:22;19.50;99.90
21353;DHT22;10834;52.268;6.770;2023-07-30T08:07:08;19.40;99.90
21353;DHT22;10834;52.268;6.770;2023-07-30T08:09:54;19.40;99.90
21353;DHT22;10834;52.268;6.770;2023-07-30T08:12:42;19.40;99.90
21353;DHT22;10834;52.268;6.770;2023-07-30T08:15:28;19.30;99.90
21353;DHT22;10834;52.268;6.770;2023-07-30T08:18:14;19.60;99.90
21353;DHT22;10834;52.268;6.770;2023-07-30T08:21:00;20.60;99.90
21353;DHT22;10834;52.268;6.770;2023-07-30T08:23:46;21.80;99.90
21353;DHT22;10834;52.268;6.770;2023-07-30T08:26:33;21.80;99.90
21353;DHT22;10834;52.268;6.770;2023-07-30T08:29:19;21.50;99.90
21353;DHT22;10834;52.268;6.770;2023-07-30T08:32:05;21.20;99.90
21353;DHT22;10834;52.268;6.770;2023-07-30T08:34:51;21.10;99.90
21353;DHT22;10834;52.268;6.770;2023-07-30T08:37:37;21.00;99.90
21353;DHT22;10834;52.268;6.770;2023-07-30T08:40:24;21.00;99.90
21353;DHT22;10834;52.268;6.770;2023-07-30T08:43:10;21.40;99.90
21353;DHT22;10834;52.268;6.770;2023-07-30T08:45:56;22.20;99.90
21353;DHT22;10834;52.268;6.770;2023-07-30T08:48:42;23.40;99.90
21353;DHT22;10834;52.268;6.770;2023-07-30T08:51:28;24.50;99.90
21353;DHT22;10834;52.268;6.770;2023-07-30T08:54:15;24.30;99.90
21353;DHT22;10834;52.268;6.770;2023-07-30T08:57:03;24.20;99.90
21353;DHT22;10834;52.268;6.770;2023-07-30T08:59:52;23.80;99.90
21353;DHT22;10834;52.268;6.770;2023-07-30T09:02:44;23.50;99.90
21353;DHT22;10834;52.268;6.770;2023-07-30T09:05:33;23.10;99.90
21353;DHT22;10834;52.268;6.770;2023-07-30T09:08:19;22.90;99.90
21353;DHT22;10834;52.268;6.770;2023-07-30T09:11:10;22.60;99.90
21353;DHT22;10834;52.268;6.770;2023-07-30T09:13:57;22.30;99.90
21353;DHT22;10834;52.268;6.770;2023-07-30T09:16:43;21.90;99.90
21353;DHT22;10834;52.268;6.770;2023-07-30T09:19:34;21.60;99.90
21353;DHT22;10834;52.268;6.770;2023-07-30T09:22:27;21.30;99.90
21353;DHT22;10834;52.268;6.770;2023-07-30T09:25:13;21.10;99.90
21353;DHT22;10834;52.268;6.770;2023-07-30T09:28:01;21.10;99.90
21353;DHT22;10834;52.268;6.770;2023-07-30T09:30:49;21.20;99.90
21353;DHT22;10834;52.268;6.770;2023-07-30T09:33:40;21.50;99.90
21353;DHT22;10834;52.268;6.770;2023-07-30T09:36:26;22.40;99.90
21353;DHT22;10834;52.268;6.770;2023-07-30T09:39:25;23.00;99.90
21353;DHT22;10834;52.268;6.770;2023-07-30T09:42:12;23.20;99.90
21353;DHT22;10834;52.268;6.770;2023-07-30T09:44:58;23.10;99.90
21353;DHT22;10834;52.268;6.770;2023-07-30T09:47:51;22.90;99.90
21353;DHT22;10834;52.268;6.770;2023-07-30T09:50:38;22.80;99.90
21353;DHT22;10834;52.268;6.770;2023-07-30T09:53:24;22.60;99.90
21353;DHT22;10834;52.268;6.770;2023-07-30T09:56:10;22.70;99.90
21353;DHT22;10834;52.268;6.770;2023-07-30T09:58:56;22.80;99.90
21353;DHT22;10834;52.268;6.770;2023-07-30T10:01:49;23.10;99.90
21353;DHT22;10834;52.268;6.770;2023-07-30T10:04:39;24.00;99.90
21353;DHT22;10834;52.268;6.770;2023-07-30T10:07:28;24.00;99.90
21353;DHT22;10834;52.268;6.770;2023-07-30T10:10:15;23.50;99.00
21353;DHT22;10834;52.268;6.770;2023-07-30T10:13:05;23.10;99.90
21353;DHT22;10834;52.268;6.770;2023-07-30T10:15:51;22.60;99.90
21353;DHT22;10834;52.268;6.770;2023-07-30T10:18:39;22.50;99.90
21353;DHT22;10834;52.268;6.770;2023-07-30T10:21:27;22.50;99.90
21353;DHT22;10834;52.268;6.770;2023-07-30T10:24:15;22.40;99.90
21353;DHT22;10834;52.268;6.770;2023-07-30T10:27:06;22.30;99.90
21353;DHT22;10834;52.268;6.770;2023-07-30T10:30:12;22.90;99.90
21353;DHT22;10834;52.268;6.770;2023-07-30T10:33:04;23.20;99.90
21353;DHT22;10834;52.268;6.770;2023-07-30T10:35:54;24.20;99.90
21353;DHT22;10834;52.268;6.770;2023-07-30T10:38:41;25.00;98.50
21353;DHT22;10834;52.268;6.770;2023-07-30T10:41:27;25.20;98.00
21353;DHT22;10834;52.268;6.770;2023-07-30T10:44:33;25.50;96.60
21353;DHT22;10834;52.268;6.770;2023-07-30T10:47:20;26.00;93.80
21353;DHT22;10834;52.268;6.770;2023-07-30T10:50:06;26.30;89.30
21353;DHT22;10834;52.268;6.770;2023-07-30T10:52:52;26.30;87.90
21353;DHT22;10834;52.268;6.770;2023-07-30T10:55:38;26.60;86.70
21353;DHT22;10834;52.268;6.770;2023-07-30T10:58:24;26.70;82.70
21353;DHT22;10834;52.268;6.770;2023-07-30T11:01:10;26.30;83.30
21353;DHT22;10834;52.268;6.770;2023-07-30T11:03:56;26.40;81.60
21353;DHT22;10834;52.268;6.770;2023-07-30T11:06:46;26.60;81.40
21353;DHT22;10834;52.268;6.770;2023-07-30T11:09:33;26.80;75.60
21353;DHT22;10834;52.268;6.770;2023-07-30T11:12:19;26.90;76.30
21353;DHT22;10834;52.268;6.770;2023-07-30T11:15:08;26.90;75.50
21353;DHT22;10834;52.268;6.770;2023-07-30T11:17:55;26.50;75.20
21353;DHT22;10834;52.268;6.770;2023-07-30T11:20:41;26.40;75.10
21353;DHT22;10834;52.268;6.770;2023-07-30T11:23:27;26.00;72.40
21353;DHT22;10834;52.268;6.770;2023-07-30T11:26:17;25.60;75.80
21353;DHT22;10834;52.268;6.770;2023-07-30T11:29:19;25.10;79.50
21353;DHT22;10834;52.268;6.770;2023-07-30T11:32:05;24.70;79.60
21353;DHT22;10834;52.268;6.770;2023-07-30T11:34:54;24.40;83.10
21353;DHT22;10834;52.268;6.770;2023-07-30T11:37:40;24.40;82.80
21353;DHT22;10834;52.268;6.770;2023-07-30T11:40:28;24.60;87.60
21353;DHT22;10834;52.268;6.770;2023-07-30T11:43:14;24.50;84.50
21353;DHT22;10834;52.268;6.770;2023-07-30T11:49:15;24.70;87.80
21353;DHT22;10834;52.268;6.770;2023-07-30T11:52:10;25.00;85.20
21353;DHT22;10834;52.268;6.770;2023-07-30T11:55:03;25.30;84.30
21353;DHT22;10834;52.268;6.770;2023-07-30T11:57:49;25.60;86.20
21353;DHT22;10834;52.268;6.770;2023-07-30T12:00:40;25.70;83.20
21353;DHT22;10834;52.268;6.770;2023-07-30T12:03:27;25.70;85.20
21353;DHT22;10834;52.268;6.770;2023-07-30T12:06:13;25.90;85.50
21353;DHT22;10834;52.268;6.770;2023-07-30T12:09:00;25.90;82.30
21353;DHT22;10834;52.268;6.770;2023-07-30T12:17:33;25.50;83.60
21353;DHT22;10834;52.268;6.770;2023-07-30T12:20:20;25.50;84.20
21353;DHT22;10834;52.268;6.770;2023-07-30T12:23:06;25.30;85.10
21353;DHT22;10834;52.268;6.770;2023-07-30T12:25:52;25.20;85.80
21353;DHT22;10834;52.268;6.770;2023-07-30T12:28:38;25.00;84.10
21353;DHT22;10834;52.268;6.770;2023-07-30T12:31:24;25.20;85.00
21353;DHT22;10834;52.268;6.770;2023-07-30T12:34:10;25.40;82.50
21353;DHT22;10834;52.268;6.770;2023-07-30T12:36:56;25.20;83.30
21353;DHT22;10834;52.268;6.770;2023-07-30T12:39:43;25.00;87.50
21353;DHT22;10834;52.268;6.770;2023-07-30T12:42:29;25.00;86.10
21353;DHT22;10834;52.268;6.770;2023-07-30T12:45:16;24.90;86.30
21353;DHT22;10834;52.268;6.770;2023-07-30T12:48:02;25.10;88.50
21353;DHT22;10834;52.268;6.770;2023-07-30T12:50:48;25.30;89.10
21353;DHT22;10834;52.268;6.770;2023-07-30T12:53:34;25.30;87.00
21353;DHT22;10834;52.268;6.770;2023-07-30T12:56:20;25.20;86.60
21353;DHT22;10834;52.268;6.770;2023-07-30T12:59:06;25.10;84.90
21353;DHT22;10834;52.268;6.770;2023-07-30T13:01:52;24.70;86.20
21353;DHT22;10834;52.268;6.770;2023-07-30T13:04:38;24.20;87.00
21353;DHT22;10834;52.268;6.770;2023-07-30T13:07:24;23.80;91.20
21353;DHT22;10834;52.268;6.770;2023-07-30T13:10:11;23.60;94.10
21353;DHT22;10834;52.268;6.770;2023-07-30T13:12:57;23.50;97.00
21353;DHT22;10834;52.268;6.770;2023-07-30T13:15:43;23.40;98.20
21353;DHT22;10834;52.268;6.770;2023-07-30T13:18:29;23.40;98.40
21353;DHT22;10834;52.268;6.770;2023-07-30T13:21:15;23.50;99.90
21353;DHT22;10834;52.268;6.770;2023-07-30T13:24:01;23.80;99.30
21353;DHT22;10834;52.268;6.770;2023-07-30T13:26:48;23.90;94.80
21353;DHT22;10834;52.268;6.770;2023-07-30T13:29:34;24.20;93.20
21353;DHT22;10834;52.268;6.770;2023-07-30T13:32:20;24.50;91.30
21353;DHT22;10834;52.268;6.770;2023-07-30T13:35:06;24.70;88.10
21353;DHT22;10834;52.268;6.770;2023-07-30T13:37:52;24.60;85.30
21353;DHT22;10834;52.268;6.770;2023-07-30T13:40:38;24.50;88.30
21353;DHT22;10834;52.268;6.770;2023-07-30T13:43:24;24.60;89.20
21353;DHT22;10834;52.268;6.770;2023-07-30T13:46:10;24.50;82.80
21353;DHT22;10834;52.268;6.770;2023-07-30T13:48:56;24.20;82.00
21353;DHT22;10834;52.268;6.770;2023-07-30T13:51:42;23.90;86.00
21353;DHT22;10834;52.268;6.770;2023-07-30T13:54:28;23.70;85.40
21353;DHT22;10834;52.268;6.770;2023-07-30T13:57:22;23.50;86.20
21353;DHT22;10834;52.268;6.770;2023-07-30T14:00:09;23.20;88.20
21353;DHT22;10834;52.268;6.770;2023-07-30T14:02:56;22.90;87.90
21353;DHT22;10834;52.268;6.770;2023-07-30T14:05:42;22.80;88.00
21353;DHT22;10834;52.268;6.770;2023-07-30T14:08:28;22.70;90.00
21353;DHT22;10834;52.268;6.770;2023-07-30T14:11:14;22.60;90.80
21353;DHT22;10834;52.268;6.770;2023-07-30T14:14:00;22.50;91.30
21353;DHT22;10834;52.268;6.770;2023-07-30T14:16:47;22.30;92.90
21353;DHT22;10834;52.268;6.770;2023-07-30T14:19:33;22.10;92.80
21353;DHT22;10834;52.268;6.770;2023-07-30T14:22:19;21.90;96.90
21353;DHT22;10834;52.268;6.770;2023-07-30T14:25:06;21.70;94.80
21353;DHT22;10834;52.268;6.770;2023-07-30T14:27:52;21.60;94.10
21353;DHT22;10834;52.268;6.770;2023-07-30T14:30:37;21.50;93.20
21353;DHT22;10834;52.268;6.770;2023-07-30T14:33:29;21.50;93.60
21353;DHT22;10834;52.268;6.770;2023-07-30T14:36:15;21.70;94.90
21353;DHT22;10834;52.268;6.770;2023-07-30T14:39:02;21.90;95.20
21353;DHT22;10834;52.268;6.770;2023-07-30T14:41:48;22.20;95.90
21353;DHT22;10834;52.268;6.770;2023-07-30T14:44:37;22.50;94.60
21353;DHT22;10834;52.268;6.770;2023-07-30T14:47:23;22.50;93.10
21353;DHT22;10834;52.268;6.770;2023-07-30T14:50:09;22.40;93.30
21353;DHT22;10834;52.268;6.770;2023-07-30T14:52:56;22.30;95.10
21353;DHT22;10834;52.268;6.770;2023-07-30T14:55:42;22.10;96.80
21353;DHT22;10834;52.268;6.770;2023-07-30T14:58:28;22.00;96.90
21353;DHT22;10834;52.268;6.770;2023-07-30T15:01:14;21.90;96.70
21353;DHT22;10834;52.268;6.770;2023-07-30T15:04:00;21.90;96.30
21353;DHT22;10834;52.268;6.770;2023-07-30T15:06:47;21.90;95.90
21353;DHT22;10834;52.268;6.770;2023-07-30T15:09:33;22.00;97.30
21353;DHT22;10834;52.268;6.770;2023-07-30T15:12:21;22.10;99.90
21353;DHT22;10834;52.268;6.770;2023-07-30T15:15:07;22.20;98.90
21353;DHT22;10834;52.268;6.770;2023-07-30T15:17:53;22.30;98.70
21353;DHT22;10834;52.268;6.770;2023-07-30T15:20:39;22.40;98.50
21353;DHT22;10834;52.268;6.770;2023-07-30T15:23:26;22.30;97.60
21353;DHT22;10834;52.268;6.770;2023-07-30T15:26:12;22.30;96.60
21353;DHT22;10834;52.268;6.770;2023-07-30T15:28:58;22.20;96.10
21353;DHT22;10834;52.268;6.770;2023-07-30T15:31:45;22.10;97.10
21353;DHT22;10834;52.268;6.770;2023-07-30T15:34:32;22.10;97.00
21353;DHT22;10834;52.268;6.770;2023-07-30T15:37:18;22.00;96.40
21353;DHT22;10834;52.268;6.770;2023-07-30T15:40:04;22.00;96.80
21353;DHT22;10834;52.268;6.770;2023-07-30T15:42:51;21.80;96.00
21353;DHT22;10834;52.268;6.770;2023-07-30T15:45:37;21.70;95.80
21353;DHT22;10834;52.268;6.770;2023-07-30T15:48:28;21.70;93.90
21353;DHT22;10834;52.268;6.770;2023-07-30T15:51:15;21.70;94.00
21353;DHT22;10834;52.268;6.770;2023-07-30T15:54:01;21.70;92.70
21353;DHT22;10834;52.268;6.770;2023-07-30T15:56:47;21.70;92.90
21353;DHT22;10834;52.268;6.770;2023-07-30T15:59:33;21.60;92.40
21353;DHT22;10834;52.268;6.770;2023-07-30T16:02:20;21.50;91.30
21353;DHT22;10834;52.268;6.770;2023-07-30T16:05:06;21.50;90.00
21353;DHT22;10834;52.268;6.770;2023-07-30T16:07:52;21.40;91.40
21353;DHT22;10834;52.268;6.770;2023-07-30T16:10:38;21.40;94.00
21353;DHT22;10834;52.268;6.770;2023-07-30T16:13:24;21.40;93.00
21353;DHT22;10834;52.268;6.770;2023-07-30T16:16:15;21.40;92.40
21353;DHT22;10834;52.268;6.770;2023-07-30T16:19:03;21.30;92.70
21353;DHT22;10834;52.268;6.770;2023-07-30T16:21:51;21.30;93.60
21353;DHT22;10834;52.268;6.770;2023-07-30T16:24:37;21.20;94.40
21353;DHT22;10834;52.268;6.770;2023-07-30T16:27:23;21.20;95.20
21353;DHT22;10834;52.268;6.770;2023-07-30T16:30:10;21.20;95.40
21353;DHT22;10834;52.268;6.770;2023-07-30T16:32:56;21.20;96.60
21353;DHT22;10834;52.268;6.770;2023-07-30T16:35:42;21.20;96.50
21353;DHT22;10834;52.268;6.770;2023-07-30T16:38:28;21.10;97.30
21353;DHT22;10834;52.268;6.770;2023-07-30T16:41:15;21.10;96.80
21353;DHT22;10834;52.268;6.770;2023-07-30T16:44:01;21.00;96.50
21353;DHT22;10834;52.268;6.770;2023-07-30T16:46:47;21.00;95.70
21353;DHT22;10834;52.268;6.770;2023-07-30T16:49:34;20.90;95.90
21353;DHT22;10834;52.268;6.770;2023-07-30T16:52:20;20.90;97.20
21353;DHT22;10834;52.268;6.770;2023-07-30T16:55:06;20.90;99.30
21353;DHT22;10834;52.268;6.770;2023-07-30T16:57:52;20.90;98.20
21353;DHT22;10834;52.268;6.770;2023-07-30T17:00:39;20.90;98.00
21353;DHT22;10834;52.268;6.770;2023-07-30T17:03:25;20.80;98.50
21353;DHT22;10834;52.268;6.770;2023-07-30T17:06:11;20.70;98.30
21353;DHT22;10834;52.268;6.770;2023-07-30T17:08:57;20.70;99.60
21353;DHT22;10834;52.268;6.770;2023-07-30T17:11:43;20.60;99.90
21353;DHT22;10834;52.268;6.770;2023-07-30T17:14:30;20.60;99.60
21353;DHT22;10834;52.268;6.770;2023-07-30T17:17:16;20.50;98.30
21353;DHT22;10834;52.268;6.770;2023-07-30T17:20:03;20.40;99.80
21353;DHT22;10834;52.268;6.770;2023-07-30T17:22:49;20.40;99.90
21353;DHT22;10834;52.268;6.770;2023-07-30T17:25:35;20.40;99.90
21353;DHT22;10834;52.268;6.770;2023-07-30T17:28:22;20.30;99.90
21353;DHT22;10834;52.268;6.770;2023-07-30T17:31:11;20.30;99.90
21353;DHT22;10834;52.268;6.770;2023-07-30T17:33:58;20.20;99.90
21353;DHT22;10834;52.268;6.770;2023-07-30T17:36:45;20.20;99.90
21353;DHT22;10834;52.268;6.770;2023-07-30T17:39:34;20.20;99.90
21353;DHT22;10834;52.268;6.770;2023-07-30T17:42:21;20.10;99.90